createdAt,value
2023-04-26T00:01:12.368Z,4.62
2023-04-26T00:03:43.056Z,4.62
2023-04-26T00:06:12.439Z,4.63
2023-04-26T00:08:43.372Z,4.62
2023-04-26T00:11:11.352Z,4.62
2023-04-26T00:13:39.462Z,4.60
2023-04-26T00:16:07.737Z,4.58
2023-04-26T00:18:36.035Z,4.58
2023-04-26T00:21:04.412Z,4.57
2023-04-26T00:23:32.479Z,4.55
2023-04-26T00:26:00.414Z,4.50
2023-04-26T00:28:31.566Z,4.44
2023-04-26T00:30:59.641Z,4.35
2023-04-26T00:33:27.763Z,4.24
2023-04-26T00:35:56.321Z,4.12
2023-04-26T00:38:24.345Z,4.00
2023-04-26T00:40:52.537Z,3.89
2023-04-26T00:43:20.760Z,3.77
2023-04-26T00:45:48.894Z,3.67
2023-04-26T00:48:16.921Z,3.60
2023-04-26T00:50:45.025Z,3.57
2023-04-26T00:53:14.765Z,3.54
2023-04-26T00:55:42.916Z,3.52
2023-04-26T00:58:11.073Z,3.50
2023-04-26T01:00:39.080Z,3.47
2023-04-26T01:03:07.227Z,3.43
2023-04-26T01:05:37.013Z,3.41
2023-04-26T01:08:05.258Z,3.39
2023-04-26T01:10:33.299Z,3.39
2023-04-26T01:13:01.667Z,3.36
2023-04-26T01:15:30.735Z,3.33
2023-04-26T01:17:58.847Z,3.30
2023-04-26T01:20:27.222Z,3.28
2023-04-26T01:22:56.142Z,3.26
2023-04-26T01:25:24.229Z,3.24
2023-04-26T01:27:52.224Z,3.23
2023-04-26T01:30:20.298Z,3.22
2023-04-26T01:32:48.354Z,3.21
2023-04-26T01:35:16.577Z,3.20
2023-04-26T01:37:44.790Z,3.20
2023-04-26T01:40:13.371Z,3.21
2023-04-26T01:42:41.623Z,3.27
2023-04-26T01:45:09.921Z,3.31
2023-04-26T01:47:56.636Z,3.38
2023-04-26T01:50:24.803Z,3.45
2023-04-26T01:52:52.870Z,3.50
2023-04-26T01:55:20.900Z,3.57
2023-04-26T01:57:49.012Z,3.64
2023-04-26T02:00:17.183Z,3.71
2023-04-26T02:02:45.367Z,3.77
2023-04-26T02:05:13.521Z,3.82
2023-04-26T02:07:41.656Z,3.88
2023-04-26T02:10:09.810Z,3.91
2023-04-26T02:12:37.833Z,3.94
2023-04-26T02:15:07.082Z,3.97
2023-04-26T02:17:37.844Z,3.97
2023-04-26T02:20:07.542Z,3.94
2023-04-26T02:22:35.675Z,3.87
2023-04-26T02:25:03.844Z,3.80
2023-04-26T02:27:33.038Z,3.72
2023-04-26T02:30:02.266Z,3.65
2023-04-26T02:32:30.810Z,3.58
2023-04-26T02:34:58.888Z,3.52
2023-04-26T02:37:27.372Z,3.48
2023-04-26T02:39:56.139Z,3.46
2023-04-26T02:42:25.178Z,3.43
2023-04-26T02:44:53.192Z,3.38
2023-04-26T02:47:21.267Z,3.35
2023-04-26T02:49:49.763Z,3.36
2023-04-26T02:52:17.981Z,3.35
2023-04-26T02:54:45.995Z,3.32
2023-04-26T02:57:13.979Z,3.29
2023-04-26T02:59:42.175Z,3.26
2023-04-26T03:02:10.476Z,3.23
2023-04-26T03:04:38.705Z,3.19
2023-04-26T03:07:06.841Z,3.14
2023-04-26T03:09:35.046Z,3.08
2023-04-26T03:12:03.453Z,3.03
2023-04-26T03:14:32.240Z,2.96
2023-04-26T03:17:00.766Z,2.90
2023-04-26T03:19:28.897Z,2.85
2023-04-26T03:21:57.457Z,2.79
2023-04-26T03:24:25.606Z,2.74
2023-04-26T03:26:53.752Z,2.70
2023-04-26T03:29:21.765Z,2.69
2023-04-26T03:31:49.803Z,2.68
2023-04-26T03:34:17.852Z,2.68
2023-04-26T03:36:46.080Z,2.67
2023-04-26T03:39:14.104Z,2.67
2023-04-26T03:41:42.171Z,2.67
2023-04-26T03:44:12.655Z,2.68
2023-04-26T03:46:40.753Z,2.69
2023-04-26T03:49:08.836Z,2.71
2023-04-26T03:51:37.189Z,2.75
2023-04-26T03:54:05.479Z,2.79
2023-04-26T03:56:33.687Z,2.82
2023-04-26T03:59:02.486Z,2.85
2023-04-26T04:01:30.597Z,2.88
2023-04-26T04:03:58.935Z,2.91
2023-04-26T04:06:27.556Z,2.96
2023-04-26T04:08:55.769Z,3.01
2023-04-26T04:11:24.535Z,3.07
2023-04-26T04:13:52.749Z,3.11
2023-04-26T04:16:20.823Z,3.15
2023-04-26T04:18:48.866Z,3.19
2023-04-26T04:21:16.884Z,3.23
2023-04-26T04:23:45.177Z,3.28
2023-04-26T04:26:14.486Z,3.34
2023-04-26T04:28:42.920Z,3.43
2023-04-26T04:31:11.584Z,3.62
2023-04-26T04:33:40.047Z,3.71
2023-04-26T04:36:09.867Z,3.69
2023-04-26T04:38:37.988Z,3.71
2023-04-26T04:41:08.660Z,3.73
2023-04-26T04:43:37.411Z,3.78
2023-04-26T04:46:05.563Z,3.80
2023-04-26T04:48:35.791Z,3.84
2023-04-26T04:51:04.009Z,3.89
2023-04-26T04:53:32.135Z,3.92
2023-04-26T04:56:00.204Z,3.97
2023-04-26T04:58:29.050Z,3.98
2023-04-26T05:01:01.366Z,4.11
2023-04-26T05:03:34.338Z,4.16
2023-04-26T05:06:04.062Z,4.22
2023-04-26T05:08:32.235Z,4.35
2023-04-26T05:11:03.888Z,4.43
2023-04-26T05:13:32.036Z,4.56
2023-04-26T05:16:01.214Z,4.70
2023-04-26T05:18:29.437Z,4.92
2023-04-26T05:20:58.116Z,5.21
2023-04-26T05:23:26.816Z,5.43
2023-04-26T05:25:54.882Z,5.62
2023-04-26T05:28:45.945Z,6.17
2023-04-26T05:31:34.321Z,6.78
2023-04-26T05:34:10.960Z,7.15
2023-04-26T05:36:40.888Z,7.86
2023-04-26T05:39:09.293Z,8.54
2023-04-26T05:41:37.322Z,8.23
2023-04-26T05:44:05.344Z,9.22
2023-04-26T05:46:33.562Z,9.54
2023-04-26T05:49:01.928Z,9.01
2023-04-26T05:51:30.064Z,8.72
2023-04-26T05:53:58.284Z,9.49
2023-04-26T05:56:26.627Z,9.84
2023-04-26T05:58:54.703Z,9.99
2023-04-26T06:01:22.709Z,9.95
2023-04-26T06:03:51.713Z,9.71
2023-04-26T06:06:21.991Z,9.70
2023-04-26T06:08:50.166Z,10.17
2023-04-26T06:11:18.190Z,10.21
2023-04-26T06:13:46.299Z,10.61
2023-04-26T06:16:15.697Z,10.75
2023-04-26T06:18:44.080Z,10.90
2023-04-26T06:21:13.397Z,11.01
2023-04-26T06:23:41.417Z,11.03
2023-04-26T06:26:09.445Z,10.92
2023-04-26T06:28:38.284Z,10.85
2023-04-26T06:31:07.261Z,10.99
2023-04-26T06:33:35.361Z,11.15
2023-04-26T06:36:03.783Z,11.32
2023-04-26T06:38:31.791Z,11.22
2023-04-26T06:41:00.161Z,11.08
2023-04-26T06:43:28.394Z,10.97
2023-04-26T06:46:19.486Z,11.12
2023-04-26T06:48:56.386Z,10.81
2023-04-26T06:51:27.255Z,10.89
2023-04-26T06:53:58.016Z,11.15
2023-04-26T06:56:26.096Z,11.08
2023-04-26T06:59:04.562Z,11.26
2023-04-26T07:01:34.176Z,11.38
2023-04-26T07:04:08.295Z,11.52
2023-04-26T07:06:39.942Z,11.49
2023-04-26T07:09:08.729Z,11.25
2023-04-26T07:11:36.909Z,11.28
2023-04-26T07:14:05.499Z,11.31
2023-04-26T07:16:33.848Z,11.24
2023-04-26T07:19:01.896Z,11.38
2023-04-26T07:21:29.908Z,11.56
2023-04-26T07:23:58.225Z,11.70
2023-04-26T07:26:27.005Z,11.63
2023-04-26T07:28:54.968Z,11.45
2023-04-26T07:31:22.980Z,11.12
2023-04-26T07:33:51.361Z,10.61
2023-04-26T07:36:19.762Z,10.60
2023-04-26T07:38:47.762Z,11.19
2023-04-26T07:41:17.722Z,11.75
2023-04-26T07:43:45.738Z,11.91
2023-04-26T07:46:14.058Z,12.04
2023-04-26T07:48:42.198Z,12.38
2023-04-26T07:51:11.126Z,12.26
2023-04-26T07:53:39.661Z,12.39
2023-04-26T07:56:08.167Z,12.26
2023-04-26T07:58:37.191Z,12.33
2023-04-26T08:01:07.152Z,11.87
2023-04-26T08:03:35.573Z,11.22
2023-04-26T08:06:04.227Z,10.80
2023-04-26T08:08:33.585Z,10.18
2023-04-26T08:11:01.709Z,10.02
2023-04-26T08:13:29.793Z,9.87
2023-04-26T08:15:57.792Z,10.29
2023-04-26T08:18:25.911Z,10.90
2023-04-26T08:20:55.664Z,11.29
2023-04-26T08:23:23.757Z,11.19
2023-04-26T08:25:52.508Z,10.91
2023-04-26T08:28:21.342Z,10.62
2023-04-26T08:30:49.399Z,11.00
2023-04-26T08:33:18.160Z,11.71
2023-04-26T08:35:46.250Z,11.63
2023-04-26T08:38:14.308Z,11.01
2023-04-26T08:40:42.300Z,10.45
2023-04-26T08:43:10.296Z,10.31
2023-04-26T08:45:38.714Z,10.34
2023-04-26T08:48:10.877Z,9.97
2023-04-26T08:50:39.120Z,9.68
2023-04-26T08:53:07.383Z,9.70
2023-04-26T08:55:36.445Z,10.12
2023-04-26T08:58:04.616Z,10.25
2023-04-26T09:00:34.707Z,10.36
2023-04-26T09:03:03.024Z,10.16
2023-04-26T09:05:31.072Z,10.24
2023-04-26T09:08:02.256Z,10.33
2023-04-26T09:10:30.629Z,10.54
2023-04-26T09:12:58.651Z,10.71
2023-04-26T09:15:27.965Z,10.64
2023-04-26T09:17:56.206Z,10.65
2023-04-26T09:20:28.072Z,10.85
2023-04-26T09:23:07.283Z,10.91
2023-04-26T09:25:35.389Z,10.67
2023-04-26T09:28:04.500Z,10.49
2023-04-26T09:30:38.444Z,10.51
2023-04-26T09:33:09.543Z,10.71
2023-04-26T09:35:42.803Z,11.01
2023-04-26T09:38:15.222Z,11.25
2023-04-26T09:40:47.447Z,11.58
2023-04-26T09:43:19.765Z,11.51
2023-04-26T09:45:50.696Z,11.25
2023-04-26T09:48:30.586Z,11.26
2023-04-26T09:51:04.816Z,11.69
2023-04-26T09:53:37.725Z,11.95
2023-04-26T09:56:19.642Z,12.40
2023-04-26T09:58:47.765Z,12.60
2023-04-26T10:01:18.168Z,12.85
2023-04-26T10:03:48.726Z,12.49
2023-04-26T10:06:17.018Z,12.68
2023-04-26T10:08:45.765Z,11.72
2023-04-26T10:11:14.080Z,11.33
2023-04-26T10:13:43.131Z,12.01
2023-04-26T10:16:11.870Z,11.51
2023-04-26T10:18:40.075Z,11.26
2023-04-26T10:21:22.718Z,11.12
2023-04-26T10:23:52.581Z,10.85
2023-04-26T10:26:57.328Z,10.94
2023-04-26T10:29:26.327Z,11.06
2023-04-26T10:32:10.954Z,11.13
2023-04-26T10:34:38.994Z,11.01
2023-04-26T10:37:12.035Z,10.87
2023-04-26T10:39:41.228Z,10.75
2023-04-26T10:42:30.412Z,10.90
2023-04-26T10:44:59.320Z,11.08
2023-04-26T10:47:35.648Z,11.71
2023-04-26T10:50:09.261Z,12.91
2023-04-26T10:52:39.290Z,13.23
2023-04-26T10:55:08.542Z,12.97
2023-04-26T10:57:50.682Z,12.23
2023-04-26T11:00:21.303Z,11.77
2023-04-26T11:02:53.143Z,11.36
2023-04-26T11:05:51.104Z,10.93
2023-04-26T11:08:28.111Z,10.75
2023-04-26T11:10:59.146Z,10.50
2023-04-26T11:13:27.523Z,10.18
2023-04-26T11:16:00.723Z,10.12
2023-04-26T11:18:28.680Z,10.47
2023-04-26T11:20:58.020Z,10.78
2023-04-26T11:23:30.254Z,10.99
2023-04-26T11:25:59.554Z,11.18
2023-04-26T11:28:27.562Z,11.31
2023-04-26T11:30:56.284Z,11.52
2023-04-26T11:33:24.279Z,11.95
2023-04-26T11:35:53.077Z,11.89
2023-04-26T11:38:25.014Z,12.29
2023-04-26T11:41:03.257Z,12.59
2023-04-26T11:43:38.157Z,12.59
2023-04-26T11:46:07.562Z,12.37
2023-04-26T11:48:36.327Z,12.60
2023-04-26T11:51:06.962Z,12.51
2023-04-26T11:53:42.772Z,12.64
2023-04-26T11:56:18.476Z,13.58
2023-04-26T11:58:48.893Z,13.81
2023-04-26T12:01:21.341Z,13.19
2023-04-26T12:03:53.953Z,12.67
2023-04-26T12:06:44.420Z,12.16
2023-04-26T12:09:13.200Z,12.34
2023-04-26T12:11:41.403Z,12.42
2023-04-26T12:14:10.219Z,12.28
2023-04-26T12:16:38.689Z,12.07
2023-04-26T12:19:07.713Z,11.92
2023-04-26T12:21:45.180Z,11.86
2023-04-26T12:24:23.494Z,12.13
2023-04-26T12:26:51.614Z,12.33
2023-04-26T12:29:19.811Z,13.13
2023-04-26T12:31:50.367Z,13.65
2023-04-26T12:34:18.641Z,13.71
2023-04-26T12:36:46.654Z,13.52
2023-04-26T12:39:15.874Z,12.58
2023-04-26T12:41:44.080Z,12.53
2023-04-26T12:44:12.289Z,12.13
2023-04-26T12:46:40.738Z,11.83
2023-04-26T12:49:10.052Z,11.36
2023-04-26T12:51:39.294Z,11.36
2023-04-26T12:54:08.077Z,11.51
2023-04-26T12:56:41.115Z,11.82
2023-04-26T12:59:09.748Z,11.90
2023-04-26T13:01:37.870Z,11.91
2023-04-26T13:04:06.807Z,11.72
2023-04-26T13:06:35.483Z,11.84
2023-04-26T13:09:03.951Z,11.73
2023-04-26T13:11:32.200Z,11.63
2023-04-26T13:14:00.229Z,11.97
2023-04-26T13:16:29.719Z,12.53
2023-04-26T13:18:58.115Z,12.44
2023-04-26T13:21:26.522Z,12.65
2023-04-26T13:23:54.582Z,12.75
2023-04-26T13:26:24.387Z,12.56
2023-04-26T13:28:53.384Z,12.04
2023-04-26T13:31:22.144Z,11.87
2023-04-26T13:33:50.580Z,12.01
2023-04-26T13:36:18.671Z,11.86
2023-04-26T13:38:46.946Z,11.66
2023-04-26T13:41:15.688Z,11.48
2023-04-26T13:43:43.681Z,11.39
2023-04-26T13:46:12.586Z,11.41
2023-04-26T13:48:43.286Z,11.24
2023-04-26T13:51:11.918Z,10.98
2023-04-26T13:53:39.891Z,11.18
2023-04-26T13:56:09.691Z,11.36
2023-04-26T13:58:37.792Z,11.52
2023-04-26T14:01:06.229Z,11.56
2023-04-26T14:03:35.298Z,11.65
2023-04-26T14:06:04.515Z,11.58
2023-04-26T14:08:33.008Z,11.53
2023-04-26T14:11:01.424Z,11.39
2023-04-26T14:13:29.402Z,11.42
2023-04-26T14:15:57.442Z,11.34
2023-04-26T14:18:25.483Z,11.41
2023-04-26T14:20:53.464Z,11.33
2023-04-26T14:23:21.552Z,11.43
2023-04-26T14:25:53.179Z,11.96
2023-04-26T14:28:21.509Z,12.50
2023-04-26T14:30:49.863Z,13.03
2023-04-26T14:33:18.404Z,13.35
2023-04-26T14:35:47.104Z,13.54
2023-04-26T14:38:15.596Z,13.53
2023-04-26T14:40:45.390Z,13.50
2023-04-26T14:43:14.095Z,13.43
2023-04-26T14:45:44.598Z,13.30
2023-04-26T14:48:13.634Z,12.89
2023-04-26T14:50:41.930Z,12.42
2023-04-26T14:53:10.589Z,11.40
2023-04-26T14:55:39.223Z,11.53
2023-04-26T14:58:08.091Z,11.30
2023-04-26T15:00:36.327Z,11.61
2023-04-26T15:03:04.902Z,12.30
2023-04-26T15:05:33.267Z,13.03
2023-04-26T15:08:01.529Z,13.63
2023-04-26T15:10:29.840Z,14.20
2023-04-26T15:12:57.891Z,14.45
2023-04-26T15:15:26.152Z,14.57
2023-04-26T15:17:54.299Z,14.54
2023-04-26T15:20:22.653Z,14.69
2023-04-26T15:22:51.102Z,14.58
2023-04-26T15:25:19.342Z,14.20
2023-04-26T15:27:47.647Z,13.60
2023-04-26T15:30:15.821Z,13.10
2023-04-26T15:32:48.403Z,12.72
2023-04-26T15:35:17.162Z,12.36
2023-04-26T15:37:45.669Z,12.09
2023-04-26T15:40:13.749Z,11.89
2023-04-26T15:42:41.756Z,12.01
2023-04-26T15:45:10.320Z,12.39
2023-04-26T15:47:38.441Z,12.54
2023-04-26T15:50:08.327Z,12.96
2023-04-26T15:52:39.261Z,12.91
2023-04-26T15:55:08.088Z,12.92
2023-04-26T15:57:36.364Z,12.71
2023-04-26T16:00:08.452Z,12.43
2023-04-26T16:02:37.430Z,12.19
2023-04-26T16:05:08.546Z,11.86
2023-04-26T16:07:38.964Z,11.52
2023-04-26T16:10:09.465Z,11.38
2023-04-26T16:12:39.708Z,11.24
2023-04-26T16:15:09.885Z,11.10
2023-04-26T16:17:38.216Z,10.91
2023-04-26T16:20:07.608Z,10.75
2023-04-26T16:22:35.962Z,10.67
2023-04-26T16:25:07.221Z,10.60
2023-04-26T16:27:35.858Z,10.59
2023-04-26T16:30:04.255Z,10.58
2023-04-26T16:32:32.385Z,10.58
2023-04-26T16:35:00.907Z,10.41
2023-04-26T16:37:29.000Z,10.29
2023-04-26T16:39:57.428Z,10.17
2023-04-26T16:42:26.538Z,10.11
2023-04-26T16:44:55.044Z,9.94
2023-04-26T16:47:23.290Z,9.76
2023-04-26T16:49:51.333Z,9.56
2023-04-26T16:52:19.566Z,9.35
2023-04-26T16:54:47.811Z,9.28
2023-04-26T16:57:16.656Z,9.18
2023-04-26T16:59:44.862Z,9.08
2023-04-26T17:02:14.293Z,8.93
2023-04-26T17:04:42.830Z,8.80
2023-04-26T17:07:13.544Z,8.74
2023-04-26T17:09:42.014Z,8.68
2023-04-26T17:12:10.471Z,8.68
2023-04-26T17:14:38.609Z,8.73
2023-04-26T17:17:06.747Z,8.79
2023-04-26T17:19:34.977Z,8.84
2023-04-26T17:22:03.519Z,8.83
2023-04-26T17:24:31.980Z,8.77
2023-04-26T17:27:00.308Z,8.68
2023-04-26T17:29:28.479Z,8.60
2023-04-26T17:31:56.639Z,8.50
2023-04-26T17:34:24.686Z,8.41
2023-04-26T17:36:53.238Z,8.34
2023-04-26T17:39:21.524Z,8.24
2023-04-26T17:41:51.477Z,8.12
2023-04-26T17:44:19.502Z,8.03
2023-04-26T17:46:50.509Z,7.91
2023-04-26T17:49:19.113Z,7.79
2023-04-26T17:51:47.296Z,7.69
2023-04-26T17:54:25.542Z,7.58
2023-04-26T17:56:54.073Z,7.47
2023-04-26T17:59:22.354Z,7.36
2023-04-26T18:01:50.763Z,7.26
2023-04-26T18:04:18.947Z,7.15
2023-04-26T18:06:47.759Z,7.06
2023-04-26T18:09:16.142Z,6.95
2023-04-26T18:11:48.313Z,6.83
2023-04-26T18:14:16.511Z,6.70
2023-04-26T18:16:44.732Z,6.56
2023-04-26T18:19:12.865Z,6.43
2023-04-26T18:21:41.187Z,6.29
2023-04-26T18:24:09.367Z,6.13
2023-04-26T18:26:39.248Z,5.98
2023-04-26T18:29:09.157Z,5.82
2023-04-26T18:31:37.824Z,5.69
2023-04-26T18:34:07.122Z,5.56
2023-04-26T18:36:36.327Z,5.45
2023-04-26T18:39:04.814Z,5.33
2023-04-26T18:41:33.050Z,5.23
2023-04-26T18:44:01.250Z,5.13
2023-04-26T18:46:29.470Z,5.05
2023-04-26T18:48:57.945Z,4.99
2023-04-26T18:51:26.796Z,4.92
2023-04-26T18:53:54.909Z,4.86
2023-04-26T18:56:23.687Z,4.78
2023-04-26T18:58:51.827Z,4.71
2023-04-26T19:01:19.872Z,4.64
2023-04-26T19:03:49.257Z,4.57
2023-04-26T19:06:18.475Z,4.52
2023-04-26T19:08:46.876Z,4.47
2023-04-26T19:11:14.891Z,4.41
2023-04-26T19:13:43.109Z,4.34
2023-04-26T19:16:11.274Z,4.26
2023-04-26T19:18:44.348Z,4.19
2023-04-26T19:21:12.383Z,4.12
2023-04-26T19:23:40.448Z,4.06
2023-04-26T19:26:09.952Z,4.03
2023-04-26T19:28:38.138Z,3.97
2023-04-26T19:31:06.424Z,3.91
2023-04-26T19:33:34.452Z,3.87
2023-04-26T19:36:02.442Z,3.84
2023-04-26T19:38:30.551Z,3.80
2023-04-26T19:40:58.517Z,3.78
2023-04-26T19:43:26.552Z,3.76
2023-04-26T19:45:56.820Z,3.76
2023-04-26T19:48:25.053Z,3.75
2023-04-26T19:50:53.026Z,3.72
2023-04-26T19:53:21.266Z,3.71
2023-04-26T19:55:49.367Z,3.71
2023-04-26T19:58:17.883Z,3.73
2023-04-26T20:00:47.611Z,3.76
2023-04-26T20:03:15.704Z,3.77
2023-04-26T20:05:43.858Z,3.76
2023-04-26T20:08:11.909Z,3.74
2023-04-26T20:10:40.000Z,3.69
2023-04-26T20:13:08.363Z,3.63
2023-04-26T20:15:37.114Z,3.55
2023-04-26T20:18:05.356Z,3.48
2023-04-26T20:20:33.784Z,3.42
2023-04-26T20:23:03.289Z,3.35
2023-04-26T20:25:31.940Z,3.27
2023-04-26T20:28:02.236Z,3.21
2023-04-26T20:30:31.405Z,3.21
2023-04-26T20:33:02.084Z,3.21
2023-04-26T20:35:30.313Z,3.21
2023-04-26T20:37:58.300Z,3.21
2023-04-26T20:40:26.420Z,3.20
2023-04-26T20:42:54.411Z,3.18
2023-04-26T20:45:23.533Z,3.16
2023-04-26T20:47:51.732Z,3.09
2023-04-26T20:50:19.903Z,3.02
2023-04-26T20:52:47.998Z,2.95
2023-04-26T20:55:17.040Z,2.89
2023-04-26T20:57:45.090Z,2.85
2023-04-26T21:00:13.841Z,2.80
2023-04-26T21:02:44.273Z,2.77
2023-04-26T21:05:12.957Z,2.77
2023-04-26T21:07:41.351Z,2.76
2023-04-26T21:10:10.122Z,2.75
2023-04-26T21:12:38.584Z,2.74
2023-04-26T21:15:07.467Z,2.73
2023-04-26T21:17:35.576Z,2.76
2023-04-26T21:20:04.510Z,2.77
2023-04-26T21:22:34.826Z,2.73
2023-04-26T21:25:02.975Z,2.72
2023-04-26T21:27:31.148Z,2.72
2023-04-26T21:29:59.458Z,2.73
2023-04-26T21:32:27.453Z,2.74
2023-04-26T21:34:55.990Z,2.72
2023-04-26T21:37:24.478Z,2.71
2023-04-26T21:39:55.256Z,2.67
2023-04-26T21:42:25.305Z,2.63
2023-04-26T21:44:53.210Z,2.59
2023-04-26T21:47:21.181Z,2.55
2023-04-26T21:49:49.308Z,2.52
2023-04-26T21:52:19.020Z,2.50
2023-04-26T21:54:47.129Z,2.48
2023-04-26T21:57:15.620Z,2.45
2023-04-26T21:59:44.059Z,2.41
2023-04-26T22:02:12.365Z,2.35
2023-04-26T22:04:43.564Z,2.30
2023-04-26T22:07:12.154Z,2.27
2023-04-26T22:09:40.504Z,2.26
2023-04-26T22:12:09.028Z,2.29
2023-04-26T22:14:37.004Z,2.34
2023-04-26T22:17:04.992Z,2.41
2023-04-26T22:19:33.247Z,2.54
2023-04-26T22:22:02.304Z,2.68
2023-04-26T22:24:30.290Z,2.85
2023-04-26T22:26:58.279Z,3.01
2023-04-26T22:29:26.253Z,3.13
2023-04-26T22:31:54.305Z,3.21
2023-04-26T22:34:22.389Z,3.26
2023-04-26T22:36:50.565Z,3.29
2023-04-26T22:39:18.576Z,3.30
2023-04-26T22:41:46.452Z,3.29
2023-04-26T22:44:15.097Z,3.28
2023-04-26T22:46:43.174Z,3.27
2023-04-26T22:49:11.517Z,3.29
2023-04-26T22:51:39.965Z,3.33
2023-04-26T22:54:08.925Z,3.39
2023-04-26T22:56:37.696Z,3.44
2023-04-26T22:59:05.760Z,3.47
2023-04-26T23:01:33.946Z,3.48
2023-04-26T23:04:03.661Z,3.48
2023-04-26T23:06:32.434Z,3.45
2023-04-26T23:09:03.247Z,3.44
2023-04-26T23:11:31.710Z,3.41
2023-04-26T23:14:01.125Z,3.42
2023-04-26T23:16:29.011Z,3.48
2023-04-26T23:18:57.124Z,3.54
2023-04-26T23:21:25.149Z,3.62
2023-04-26T23:23:53.199Z,3.70
2023-04-26T23:26:21.217Z,3.73
2023-04-26T23:28:49.150Z,3.74
2023-04-26T23:31:17.130Z,3.73
2023-04-26T23:33:46.469Z,3.68
2023-04-26T23:36:14.476Z,3.62
2023-04-26T23:38:42.407Z,3.54
2023-04-26T23:41:10.544Z,3.48
2023-04-26T23:43:38.569Z,3.42
2023-04-26T23:46:07.074Z,3.36
2023-04-26T23:48:36.021Z,3.31
2023-04-26T23:51:04.925Z,3.26
2023-04-26T23:53:32.899Z,3.24
2023-04-26T23:56:00.867Z,3.21
2023-04-26T23:58:29.642Z,3.20
